sensor_id;sensor_type;location;lat;lon;timestamp;pressure;altitude;pressure_sealevel;temperature;humidity
16821;BME280;8527;49.740;6.604;2022-07-29T00:00:04;99512.84;;;21.24;56.40
16821;BME280;8527;49.740;6.604;2022-07-29T00:05:07;99515.22;;;21.20;56.10
16821;BME280;8527;49.740;6.604;2022-07-29T00:10:14;99504.31;;;21.15;55.91
16821;BME280;8527;49.740;6.604;2022-07-29T00:15:18;99506.22;;;21.14;55.97
16821;BME280;8527;49.740;6.604;2022-07-29T00:20:20;99505.22;;;21.03;56.56
16821;BME280;8527;49.740;6.604;2022-07-29T00:25:21;99500.66;;;21.04;57.54
16821;BME280;8527;49.740;6.604;2022-07-29T00:30:20;99495.75;;;21.01;57.23
16821;BME280;8527;49.740;6.604;2022-07-29T00:35:22;99492.53;;;20.87;56.81
16821;BME280;8527;49.740;6.604;2022-07-29T00:40:36;99478.84;;;20.88;56.50
16821;BME280;8527;49.740;6.604;2022-07-29T00:45:38;99477.38;;;20.69;57.64
16821;BME280;8527;49.740;6.604;2022-07-29T00:50:38;99477.94;;;20.71;57.65
16821;BME280;8527;49.740;6.604;2022-07-29T00:55:45;99476.19;;;20.47;58.13
16821;BME280;8527;49.740;6.604;2022-07-29T01:00:44;99471.38;;;20.49;58.54
16821;BME280;8527;49.740;6.604;2022-07-29T01:05:52;99477.19;;;20.29;58.91
16821;BME280;8527;49.740;6.604;2022-07-29T01:10:54;99473.16;;;20.44;58.04
16821;BME280;8527;49.740;6.604;2022-07-29T01:15:56;99470.59;;;20.37;58.02
16821;BME280;8527;49.740;6.604;2022-07-29T01:21:17;99461.72;;;20.36;59.03
16821;BME280;8527;49.740;6.604;2022-07-29T01:26:41;99469.59;;;20.26;58.37
16821;BME280;8527;49.740;6.604;2022-07-29T01:31:51;99459.56;;;20.09;58.71
16821;BME280;8527;49.740;6.604;2022-07-29T01:37:05;99464.63;;;20.06;58.74
16821;BME280;8527;49.740;6.604;2022-07-29T01:42:10;99460.88;;;19.95;58.84
16821;BME280;8527;49.740;6.604;2022-07-29T01:47:17;99458.44;;;19.81;59.04
16821;BME280;8527;49.740;6.604;2022-07-29T01:52:23;99459.84;;;19.84;58.97
16821;BME280;8527;49.740;6.604;2022-07-29T01:57:27;99476.22;;;19.82;58.44
16821;BME280;8527;49.740;6.604;2022-07-29T02:02:32;99475.53;;;19.75;59.18
16821;BME280;8527;49.740;6.604;2022-07-29T02:07:34;99472.81;;;19.87;59.71
16821;BME280;8527;49.740;6.604;2022-07-29T02:12:36;99482.44;;;19.83;59.43
16821;BME280;8527;49.740;6.604;2022-07-29T02:17:41;99472.72;;;19.82;59.75
16821;BME280;8527;49.740;6.604;2022-07-29T02:22:43;99468.97;;;19.83;59.51
16821;BME280;8527;49.740;6.604;2022-07-29T02:27:43;99472.28;;;19.73;60.88
16821;BME280;8527;49.740;6.604;2022-07-29T02:32:46;99465.59;;;19.52;60.34
16821;BME280;8527;49.740;6.604;2022-07-29T02:37:49;99467.34;;;19.46;61.46
16821;BME280;8527;49.740;6.604;2022-07-29T02:43:05;99467.84;;;19.31;60.78
16821;BME280;8527;49.740;6.604;2022-07-29T02:48:11;99469.84;;;19.36;61.35
16821;BME280;8527;49.740;6.604;2022-07-29T02:53:16;99470.16;;;19.28;61.06
16821;BME280;8527;49.740;6.604;2022-07-29T02:58:25;99478.25;;;19.16;60.92
16821;BME280;8527;49.740;6.604;2022-07-29T03:03:31;99479.03;;;19.04;62.01
16821;BME280;8527;49.740;6.604;2022-07-29T03:08:31;99477.84;;;19.00;61.39
16821;BME280;8527;49.740;6.604;2022-07-29T03:13:30;99486.34;;;18.85;61.95
16821;BME280;8527;49.740;6.604;2022-07-29T03:18:31;99488.91;;;18.92;62.04
16821;BME280;8527;49.740;6.604;2022-07-29T03:23:34;99489.72;;;18.80;62.11
16821;BME280;8527;49.740;6.604;2022-07-29T03:28:33;99495.50;;;18.65;62.62
16821;BME280;8527;49.740;6.604;2022-07-29T03:33:39;99494.78;;;18.58;63.70
16821;BME280;8527;49.740;6.604;2022-07-29T03:38:40;99488.13;;;18.61;63.34
16821;BME280;8527;49.740;6.604;2022-07-29T03:43:41;99494.94;;;18.45;64.01
16821;BME280;8527;49.740;6.604;2022-07-29T03:48:46;99499.13;;;18.40;63.63
16821;BME280;8527;49.740;6.604;2022-07-29T03:53:50;99494.13;;;18.44;63.90
16821;BME280;8527;49.740;6.604;2022-07-29T03:58:49;99483.16;;;18.46;63.21
16821;BME280;8527;49.740;6.604;2022-07-29T04:03:51;99487.72;;;18.26;64.17
16821;BME280;8527;49.740;6.604;2022-07-29T04:08:52;99483.81;;;18.10;63.95
16821;BME280;8527;49.740;6.604;2022-07-29T04:13:51;99489.59;;;17.89;64.70
16821;BME280;8527;49.740;6.604;2022-07-29T04:18:54;99498.88;;;18.11;64.60
16821;BME280;8527;49.740;6.604;2022-07-29T04:23:55;99499.84;;;18.17;64.44
16821;BME280;8527;49.740;6.604;2022-07-29T04:28:53;99499.59;;;18.19;64.05
16821;BME280;8527;49.740;6.604;2022-07-29T04:33:54;99508.69;;;17.99;64.90
16821;BME280;8527;49.740;6.604;2022-07-29T04:38:52;99515.78;;;17.93;64.71
16821;BME280;8527;49.740;6.604;2022-07-29T04:43:56;99515.59;;;17.88;64.57
16821;BME280;8527;49.740;6.604;2022-07-29T04:48:58;99517.94;;;17.84;64.61
16821;BME280;8527;49.740;6.604;2022-07-29T04:54:00;99527.03;;;17.83;66.60
16821;BME280;8527;49.740;6.604;2022-07-29T04:58:59;99534.06;;;18.03;64.68
16821;BME280;8527;49.740;6.604;2022-07-29T05:04:06;99522.88;;;18.06;65.07
16821;BME280;8527;49.740;6.604;2022-07-29T05:09:05;99522.78;;;18.13;64.44
16821;BME280;8527;49.740;6.604;2022-07-29T05:14:03;99530.34;;;18.23;65.20
16821;BME280;8527;49.740;6.604;2022-07-29T05:19:11;99536.53;;;18.23;64.86
16821;BME280;8527;49.740;6.604;2022-07-29T05:24:15;99541.50;;;18.20;66.36
16821;BME280;8527;49.740;6.604;2022-07-29T05:29:20;99545.38;;;18.42;65.85
16821;BME280;8527;49.740;6.604;2022-07-29T05:34:21;99552.94;;;18.52;66.82
16821;BME280;8527;49.740;6.604;2022-07-29T05:39:37;99551.72;;;18.48;67.27
16821;BME280;8527;49.740;6.604;2022-07-29T05:44:43;99545.38;;;18.61;66.32
16821;BME280;8527;49.740;6.604;2022-07-29T05:49:50;99549.97;;;18.73;66.84
16821;BME280;8527;49.740;6.604;2022-07-29T05:54:52;99552.22;;;18.76;67.69
16821;BME280;8527;49.740;6.604;2022-07-29T05:59:54;99556.75;;;18.75;66.94
16821;BME280;8527;49.740;6.604;2022-07-29T06:04:58;99555.69;;;18.76;67.11
16821;BME280;8527;49.740;6.604;2022-07-29T06:10:04;99569.66;;;18.85;67.23
16821;BME280;8527;49.740;6.604;2022-07-29T06:15:08;99563.72;;;18.95;66.55
16821;BME280;8527;49.740;6.604;2022-07-29T06:20:21;99564.06;;;19.17;65.74
16821;BME280;8527;49.740;6.604;2022-07-29T06:25:19;99563.00;;;19.18;65.96
16821;BME280;8527;49.740;6.604;2022-07-29T06:30:20;99560.94;;;19.32;65.26
16821;BME280;8527;49.740;6.604;2022-07-29T06:35:23;99571.63;;;19.63;64.69
16821;BME280;8527;49.740;6.604;2022-07-29T06:40:25;99572.66;;;19.74;64.07
16821;BME280;8527;49.740;6.604;2022-07-29T06:45:41;99576.16;;;19.62;63.32
16821;BME280;8527;49.740;6.604;2022-07-29T06:50:42;99570.31;;;19.89;62.20
16821;BME280;8527;49.740;6.604;2022-07-29T06:55:46;99575.25;;;20.04;61.21
16821;BME280;8527;49.740;6.604;2022-07-29T07:00:50;99573.03;;;20.25;60.40
16821;BME280;8527;49.740;6.604;2022-07-29T07:05:51;99572.38;;;20.47;60.17
16821;BME280;8527;49.740;6.604;2022-07-29T07:10:52;99580.44;;;20.59;59.16
16821;BME280;8527;49.740;6.604;2022-07-29T07:15:55;99577.53;;;20.89;58.07
16821;BME280;8527;49.740;6.604;2022-07-29T07:20:57;99585.44;;;21.25;56.40
16821;BME280;8527;49.740;6.604;2022-07-29T07:25:56;99585.78;;;21.80;56.21
16821;BME280;8527;49.740;6.604;2022-07-29T07:30:55;99587.50;;;22.03;54.18
16821;BME280;8527;49.740;6.604;2022-07-29T07:35:56;99584.44;;;23.39;50.86
16821;BME280;8527;49.740;6.604;2022-07-29T07:40:54;99573.56;;;23.06;51.56
16821;BME280;8527;49.740;6.604;2022-07-29T07:45:53;99578.56;;;24.38;49.16
16821;BME280;8527;49.740;6.604;2022-07-29T07:50:51;99577.94;;;24.84;47.26
16821;BME280;8527;49.740;6.604;2022-07-29T07:55:52;99575.94;;;24.59;46.44
16821;BME280;8527;49.740;6.604;2022-07-29T08:00:51;99575.00;;;25.38;44.72
16821;BME280;8527;49.740;6.604;2022-07-29T08:05:49;99572.13;;;26.31;43.38
16821;BME280;8527;49.740;6.604;2022-07-29T08:10:52;99579.78;;;26.13;42.35
16821;BME280;8527;49.740;6.604;2022-07-29T08:15:54;99578.25;;;27.13;42.09
16821;BME280;8527;49.740;6.604;2022-07-29T08:20:56;99578.38;;;27.62;40.05
16821;BME280;8527;49.740;6.604;2022-07-29T08:25:57;99579.13;;;27.73;40.63
16821;BME280;8527;49.740;6.604;2022-07-29T08:30:56;99576.44;;;28.21;40.16
16821;BME280;8527;49.740;6.604;2022-07-29T08:35:54;99583.97;;;28.73;38.54
16821;BME280;8527;49.740;6.604;2022-07-29T08:40:59;99582.91;;;29.46;37.18
16821;BME280;8527;49.740;6.604;2022-07-29T08:45:59;99579.50;;;29.82;37.17
16821;BME280;8527;49.740;6.604;2022-07-29T08:50:58;99584.41;;;30.27;37.85
16821;BME280;8527;49.740;6.604;2022-07-29T08:56:01;99589.25;;;30.58;36.01
16821;BME280;8527;49.740;6.604;2022-07-29T09:01:02;99579.38;;;30.71;35.14
16821;BME280;8527;49.740;6.604;2022-07-29T09:06:05;99569.59;;;30.93;35.71
16821;BME280;8527;49.740;6.604;2022-07-29T09:11:09;99567.69;;;30.94;36.00
16821;BME280;8527;49.740;6.604;2022-07-29T09:16:08;99574.53;;;31.05;34.50
16821;BME280;8527;49.740;6.604;2022-07-29T09:21:08;99567.84;;;31.20;34.66
16821;BME280;8527;49.740;6.604;2022-07-29T09:26:27;99573.13;;;31.62;34.73
16821;BME280;8527;49.740;6.604;2022-07-29T09:31:36;99568.78;;;31.61;33.57
16821;BME280;8527;49.740;6.604;2022-07-29T09:36:49;99562.16;;;31.94;33.70
16821;BME280;8527;49.740;6.604;2022-07-29T09:41:52;99562.66;;;31.64;33.75
16821;BME280;8527;49.740;6.604;2022-07-29T09:46:55;99553.84;;;32.25;32.81
16821;BME280;8527;49.740;6.604;2022-07-29T09:52:04;99553.63;;;31.32;33.06
16821;BME280;8527;49.740;6.604;2022-07-29T09:57:06;99547.72;;;31.02;33.38
16821;BME280;8527;49.740;6.604;2022-07-29T10:02:15;99540.78;;;32.31;32.36
16821;BME280;8527;49.740;6.604;2022-07-29T10:07:15;99539.69;;;32.41;33.07
16821;BME280;8527;49.740;6.604;2022-07-29T10:12:17;99545.69;;;32.69;30.03
16821;BME280;8527;49.740;6.604;2022-07-29T10:17:17;99547.63;;;33.22;29.40
16821;BME280;8527;49.740;6.604;2022-07-29T10:22:16;99551.31;;;32.47;30.31
16821;BME280;8527;49.740;6.604;2022-07-29T10:27:22;99549.41;;;33.09;30.44
16821;BME280;8527;49.740;6.604;2022-07-29T10:32:38;99540.66;;;32.72;30.19
16821;BME280;8527;49.740;6.604;2022-07-29T10:37:51;99550.56;;;32.81;30.35
16821;BME280;8527;49.740;6.604;2022-07-29T10:43:00;99547.44;;;32.48;30.28
16821;BME280;8527;49.740;6.604;2022-07-29T10:48:05;99535.81;;;32.68;31.30
16821;BME280;8527;49.740;6.604;2022-07-29T10:53:04;99537.84;;;33.51;28.06
16821;BME280;8527;49.740;6.604;2022-07-29T10:58:16;99537.88;;;33.24;28.04
16821;BME280;8527;49.740;6.604;2022-07-29T11:03:42;99534.94;;;33.47;27.14
16821;BME280;8527;49.740;6.604;2022-07-29T11:08:40;99539.25;;;33.66;27.96
16821;BME280;8527;49.740;6.604;2022-07-29T11:13:49;99532.34;;;33.51;26.90
16821;BME280;8527;49.740;6.604;2022-07-29T11:24:20;99540.41;;;33.95;26.50
16821;BME280;8527;49.740;6.604;2022-07-29T11:29:26;99531.22;;;33.43;27.65
16821;BME280;8527;49.740;6.604;2022-07-29T11:34:26;99540.75;;;33.55;26.24
16821;BME280;8527;49.740;6.604;2022-07-29T11:39:27;99534.38;;;33.15;28.03
16821;BME280;8527;49.740;6.604;2022-07-29T11:50:00;99535.00;;;33.03;28.45
16821;BME280;8527;49.740;6.604;2022-07-29T11:55:01;99534.53;;;33.10;28.86
16821;BME280;8527;49.740;6.604;2022-07-29T12:00:01;99535.31;;;33.76;28.47
16821;BME280;8527;49.740;6.604;2022-07-29T12:05:02;99528.78;;;33.42;26.33
16821;BME280;8527;49.740;6.604;2022-07-29T12:10:01;99529.69;;;33.07;25.84
16821;BME280;8527;49.740;6.604;2022-07-29T12:15:14;99531.28;;;33.17;27.39
16821;BME280;8527;49.740;6.604;2022-07-29T12:20:25;99522.63;;;33.53;26.59
16821;BME280;8527;49.740;6.604;2022-07-29T12:25:24;99515.06;;;33.80;26.64
16821;BME280;8527;49.740;6.604;2022-07-29T12:30:23;99511.53;;;33.32;27.11
16821;BME280;8527;49.740;6.604;2022-07-29T12:35:36;99512.34;;;33.24;26.82
16821;BME280;8527;49.740;6.604;2022-07-29T12:40:37;99514.34;;;33.62;25.96
16821;BME280;8527;49.740;6.604;2022-07-29T12:45:39;99502.97;;;34.03;27.15
16821;BME280;8527;49.740;6.604;2022-07-29T12:50:58;99503.66;;;34.00;25.99
16821;BME280;8527;49.740;6.604;2022-07-29T12:55:58;99504.88;;;34.11;26.39
16821;BME280;8527;49.740;6.604;2022-07-29T13:01:03;99509.81;;;33.97;26.30
16821;BME280;8527;49.740;6.604;2022-07-29T13:06:05;99500.59;;;34.01;26.62
16821;BME280;8527;49.740;6.604;2022-07-29T13:11:06;99497.22;;;34.17;26.64
16821;BME280;8527;49.740;6.604;2022-07-29T13:16:08;99512.34;;;34.32;25.06
16821;BME280;8527;49.740;6.604;2022-07-29T13:21:17;99503.13;;;33.76;26.54
16821;BME280;8527;49.740;6.604;2022-07-29T13:26:15;99516.63;;;33.90;25.40
16821;BME280;8527;49.740;6.604;2022-07-29T13:31:17;99512.84;;;34.04;24.97
16821;BME280;8527;49.740;6.604;2022-07-29T13:36:22;99507.16;;;33.22;24.27
16821;BME280;8527;49.740;6.604;2022-07-29T13:41:20;99511.75;;;33.09;24.82
16821;BME280;8527;49.740;6.604;2022-07-29T13:46:22;99503.16;;;33.11;24.25
16821;BME280;8527;49.740;6.604;2022-07-29T13:51:29;99511.66;;;33.45;24.66
16821;BME280;8527;49.740;6.604;2022-07-29T13:56:27;99518.91;;;33.58;24.66
16821;BME280;8527;49.740;6.604;2022-07-29T14:01:28;99507.78;;;33.46;25.06
16821;BME280;8527;49.740;6.604;2022-07-29T14:06:30;99511.25;;;33.16;26.49
16821;BME280;8527;49.740;6.604;2022-07-29T14:11:28;99509.00;;;33.66;26.28
16821;BME280;8527;49.740;6.604;2022-07-29T14:16:32;99490.25;;;33.03;25.45
16821;BME280;8527;49.740;6.604;2022-07-29T14:21:36;99496.56;;;32.94;27.08
16821;BME280;8527;49.740;6.604;2022-07-29T14:26:38;99491.53;;;32.61;27.18
16821;BME280;8527;49.740;6.604;2022-07-29T14:31:36;99494.00;;;32.45;26.94
16821;BME280;8527;49.740;6.604;2022-07-29T14:36:40;99484.41;;;32.25;26.68
16821;BME280;8527;49.740;6.604;2022-07-29T14:41:41;99485.25;;;31.76;28.36
16821;BME280;8527;49.740;6.604;2022-07-29T14:46:39;99490.38;;;32.18;27.07
16821;BME280;8527;49.740;6.604;2022-07-29T14:51:40;99489.69;;;32.04;28.00
16821;BME280;8527;49.740;6.604;2022-07-29T14:56:41;99481.97;;;32.14;28.27
16821;BME280;8527;49.740;6.604;2022-07-29T15:01:46;99490.22;;;32.06;27.42
16821;BME280;8527;49.740;6.604;2022-07-29T15:06:47;99501.78;;;31.94;28.82
16821;BME280;8527;49.740;6.604;2022-07-29T15:11:47;99506.72;;;31.74;29.17
16821;BME280;8527;49.740;6.604;2022-07-29T15:16:45;99507.69;;;31.38;30.62
16821;BME280;8527;49.740;6.604;2022-07-29T15:21:55;99518.78;;;31.10;31.08
16821;BME280;8527;49.740;6.604;2022-07-29T15:26:57;99516.09;;;30.73;31.70
16821;BME280;8527;49.740;6.604;2022-07-29T15:31:55;99530.31;;;30.98;32.42
16821;BME280;8527;49.740;6.604;2022-07-29T15:36:59;99525.38;;;30.63;32.37
16821;BME280;8527;49.740;6.604;2022-07-29T15:41:58;99511.38;;;30.87;33.20
16821;BME280;8527;49.740;6.604;2022-07-29T15:46:57;99525.50;;;31.04;32.68
16821;BME280;8527;49.740;6.604;2022-07-29T15:52:07;99521.28;;;30.97;33.53
16821;BME280;8527;49.740;6.604;2022-07-29T15:57:06;99518.31;;;30.85;33.82
16821;BME280;8527;49.740;6.604;2022-07-29T16:02:05;99522.56;;;30.77;34.38
16821;BME280;8527;49.740;6.604;2022-07-29T16:07:15;99517.03;;;30.68;34.17
16821;BME280;8527;49.740;6.604;2022-07-29T16:12:16;99516.13;;;30.59;34.26
16821;BME280;8527;49.740;6.604;2022-07-29T16:17:14;99520.16;;;30.62;34.05
16821;BME280;8527;49.740;6.604;2022-07-29T16:22:15;99517.50;;;30.34;34.39
16821;BME280;8527;49.740;6.604;2022-07-29T16:27:14;99535.13;;;29.57;35.89
16821;BME280;8527;49.740;6.604;2022-07-29T16:32:12;99540.47;;;29.15;36.51
16821;BME280;8527;49.740;6.604;2022-07-29T16:37:16;99532.38;;;28.91;37.87
16821;BME280;8527;49.740;6.604;2022-07-29T16:42:25;99540.47;;;28.19;38.81
16821;BME280;8527;49.740;6.604;2022-07-29T16:47:24;99544.13;;;28.53;39.22
16821;BME280;8527;49.740;6.604;2022-07-29T16:52:25;99555.47;;;27.92;40.53
16821;BME280;8527;49.740;6.604;2022-07-29T16:57:23;99568.69;;;28.53;39.66
16821;BME280;8527;49.740;6.604;2022-07-29T17:02:22;99569.97;;;27.88;40.66
16821;BME280;8527;49.740;6.604;2022-07-29T17:07:20;99581.09;;;27.32;42.37
16821;BME280;8527;49.740;6.604;2022-07-29T17:12:24;99588.38;;;27.07;44.15
16821;BME280;8527;49.740;6.604;2022-07-29T17:17:22;99595.38;;;27.14;44.04
16821;BME280;8527;49.740;6.604;2022-07-29T17:22:23;99609.47;;;27.26;44.34
16821;BME280;8527;49.740;6.604;2022-07-29T17:27:24;99610.38;;;26.61;45.82
16821;BME280;8527;49.740;6.604;2022-07-29T17:32:26;99619.69;;;27.05;45.45
16821;BME280;8527;49.740;6.604;2022-07-29T17:37:24;99623.69;;;27.18;45.18
16821;BME280;8527;49.740;6.604;2022-07-29T17:42:26;99625.19;;;26.94;45.23
16821;BME280;8527;49.740;6.604;2022-07-29T17:47:32;99627.78;;;26.60;46.57
16821;BME280;8527;49.740;6.604;2022-07-29T17:52:35;99633.63;;;26.06;48.02
16821;BME280;8527;49.740;6.604;2022-07-29T17:57:36;99636.94;;;25.88;48.74
16821;BME280;8527;49.740;6.604;2022-07-29T18:02:35;99633.88;;;26.15;48.12
16821;BME280;8527;49.740;6.604;2022-07-29T18:07:34;99649.97;;;26.11;48.19
16821;BME280;8527;49.740;6.604;2022-07-29T18:12:32;99645.09;;;25.98;49.29
16821;BME280;8527;49.740;6.604;2022-07-29T18:17:45;99650.25;;;25.94;48.90
16821;BME280;8527;49.740;6.604;2022-07-29T18:22:43;99656.78;;;26.19;48.92
16821;BME280;8527;49.740;6.604;2022-07-29T18:27:42;99668.66;;;26.44;47.96
16821;BME280;8527;49.740;6.604;2022-07-29T18:32:44;99671.41;;;26.29;49.00
16821;BME280;8527;49.740;6.604;2022-07-29T18:37:44;99670.06;;;26.16;49.63
16821;BME280;8527;49.740;6.604;2022-07-29T18:42:43;99675.22;;;26.12;49.16
16821;BME280;8527;49.740;6.604;2022-07-29T18:47:50;99681.25;;;26.19;48.54
16821;BME280;8527;49.740;6.604;2022-07-29T18:52:49;99690.47;;;25.97;49.69
16821;BME280;8527;49.740;6.604;2022-07-29T18:57:53;99685.31;;;26.01;49.33
16821;BME280;8527;49.740;6.604;2022-07-29T19:02:55;99703.25;;;25.76;50.46
16821;BME280;8527;49.740;6.604;2022-07-29T19:07:54;99707.84;;;25.65;50.98
16821;BME280;8527;49.740;6.604;2022-07-29T19:12:52;99716.53;;;25.52;50.20
16821;BME280;8527;49.740;6.604;2022-07-29T19:17:56;99716.81;;;25.71;50.34
16821;BME280;8527;49.740;6.604;2022-07-29T19:22:54;99720.56;;;25.44;50.49
16821;BME280;8527;49.740;6.604;2022-07-29T19:27:53;99738.22;;;25.31;51.90
16821;BME280;8527;49.740;6.604;2022-07-29T19:32:52;99748.53;;;25.29;51.54
16821;BME280;8527;49.740;6.604;2022-07-29T19:37:54;99755.81;;;25.18;51.64
16821;BME280;8527;49.740;6.604;2022-07-29T19:42:54;99763.59;;;24.99;51.54
16821;BME280;8527;49.740;6.604;2022-07-29T19:47:53;99762.19;;;24.86;52.41
16821;BME280;8527;49.740;6.604;2022-07-29T19:52:54;99778.72;;;24.79;51.08
16821;BME280;8527;49.740;6.604;2022-07-29T19:57:56;99777.78;;;24.68;52.01
16821;BME280;8527;49.740;6.604;2022-07-29T20:02:57;99789.84;;;24.45;52.89
16821;BME280;8527;49.740;6.604;2022-07-29T20:08:00;99801.16;;;24.32;53.30
16821;BME280;8527;49.740;6.604;2022-07-29T20:12:59;99801.06;;;24.21;53.11
16821;BME280;8527;49.740;6.604;2022-07-29T20:17:57;99812.00;;;23.77;55.02
16821;BME280;8527;49.740;6.604;2022-07-29T20:23:01;99814.44;;;23.78;54.38
16821;BME280;8527;49.740;6.604;2022-07-29T20:28:01;99815.53;;;23.77;53.69
16821;BME280;8527;49.740;6.604;2022-07-29T20:33:00;99831.22;;;23.75;52.88
16821;BME280;8527;49.740;6.604;2022-07-29T20:38:00;99835.56;;;23.76;53.17
16821;BME280;8527;49.740;6.604;2022-07-29T20:43:01;99837.03;;;23.62;53.74
16821;BME280;8527;49.740;6.604;2022-07-29T20:48:00;99841.00;;;23.31;54.35
16821;BME280;8527;49.740;6.604;2022-07-29T20:53:01;99843.06;;;23.24;53.93
16821;BME280;8527;49.740;6.604;2022-07-29T20:57:59;99844.13;;;23.23;52.95
16821;BME280;8527;49.740;6.604;2022-07-29T21:02:58;99846.38;;;23.09;54.31
16821;BME280;8527;49.740;6.604;2022-07-29T21:07:56;99842.56;;;22.88;54.38
16821;BME280;8527;49.740;6.604;2022-07-29T21:13:02;99851.00;;;22.74;54.50
16821;BME280;8527;49.740;6.604;2022-07-29T21:18:06;99864.31;;;22.59;55.11
16821;BME280;8527;49.740;6.604;2022-07-29T21:23:21;99863.06;;;22.50;54.63
16821;BME280;8527;49.740;6.604;2022-07-29T21:28:27;99866.00;;;22.48;55.06
16821;BME280;8527;49.740;6.604;2022-07-29T21:33:31;99860.63;;;22.19;56.23
16821;BME280;8527;49.740;6.604;2022-07-29T21:38:30;99865.38;;;22.29;56.56
16821;BME280;8527;49.740;6.604;2022-07-29T21:43:31;99880.31;;;22.31;55.05
16821;BME280;8527;49.740;6.604;2022-07-29T21:48:30;99884.25;;;22.12;55.76
16821;BME280;8527;49.740;6.604;2022-07-29T21:53:28;99884.19;;;22.06;55.99
16821;BME280;8527;49.740;6.604;2022-07-29T21:58:26;99894.00;;;21.84;56.48
16821;BME280;8527;49.740;6.604;2022-07-29T22:03:27;99896.91;;;21.94;56.11
16821;BME280;8527;49.740;6.604;2022-07-29T22:08:29;99900.81;;;21.86;56.70
16821;BME280;8527;49.740;6.604;2022-07-29T22:13:31;99904.38;;;21.75;57.73
16821;BME280;8527;49.740;6.604;2022-07-29T22:18:34;99904.38;;;21.63;57.57
16821;BME280;8527;49.740;6.604;2022-07-29T22:23:33;99910.25;;;21.60;56.75
16821;BME280;8527;49.740;6.604;2022-07-29T22:28:35;99898.91;;;21.34;58.59
16821;BME280;8527;49.740;6.604;2022-07-29T22:33:38;99906.56;;;21.13;58.39
16821;BME280;8527;49.740;6.604;2022-07-29T22:38:37;99899.03;;;21.03;59.83
16821;BME280;8527;49.740;6.604;2022-07-29T22:43:37;99904.31;;;21.10;60.21
16821;BME280;8527;49.740;6.604;2022-07-29T22:48:40;99908.69;;;21.11;59.33
16821;BME280;8527;49.740;6.604;2022-07-29T22:53:52;99898.81;;;21.05;59.12
16821;BME280;8527;49.740;6.604;2022-07-29T22:58:53;99897.75;;;20.94;59.84
16821;BME280;8527;49.740;6.604;2022-07-29T23:03:58;99897.13;;;20.80;60.72
16821;BME280;8527;49.740;6.604;2022-07-29T23:09:02;99893.59;;;20.67;61.14
16821;BME280;8527;49.740;6.604;2022-07-29T23:14:01;99891.25;;;20.71;61.60
16821;BME280;8527;49.740;6.604;2022-07-29T23:19:03;99889.88;;;20.38;61.94
16821;BME280;8527;49.740;6.604;2022-07-29T23:24:02;99882.28;;;20.35;61.67
16821;BME280;8527;49.740;6.604;2022-07-29T23:29:00;99889.22;;;20.12;64.04
16821;BME280;8527;49.740;6.604;2022-07-29T23:33:58;99883.53;;;20.32;62.30
16821;BME280;8527;49.740;6.604;2022-07-29T23:39:00;99882.66;;;20.08;62.21
16821;BME280;8527;49.740;6.604;2022-07-29T23:43:58;99886.38;;;19.88;62.85
16821;BME280;8527;49.740;6.604;2022-07-29T23:48:57;99876.84;;;19.74;64.03
16821;BME280;8527;49.740;6.604;2022-07-29T23:53:57;99876.75;;;19.80;62.97
16821;BME280;8527;49.740;6.604;2022-07-29T23:58:58;99880.66;;;19.66;63.90
